RYR84KB EGGW-LEMI
Flight info
| Callsign | RYR84KB |
|---|---|
| Flight time | 2h 25m |
| Altitude | 33000 |
| Route | RODNI N27 ICTAM Q63 CPT N859 VAPID UN859 SOPIL DCT BALAN DCT LMG DCT PIMQO DCT AGN DCT ANETO DCT POSSY DCT XIMPE DCT RIMES N860 VLC L34 ALT |
| Aircraft | B738/M-SDE2E3FGHIRWXY/LB1 |
Departure
| Time | 2026-04-23 12:47 |
|---|---|
| Airport | London Luton Airport (EGGW) |
Arrival
| Time | 2026-04-23 15:12 |
|---|---|
| Airport | Region of Murcia International Airport (LEMI) |
| Time | Latitude | Longitude | Altitude | Speed | Heading |
|---|---|---|---|---|---|
| 2026-04-23 12:29 | 51.87759 | -0.37118 | 515 ft | 0 kts | 251° |
| 2026-04-23 12:39 | 51.87761 | -0.37112 | 515 ft | 3 kts | 251° |
| 2026-04-23 12:40 | 51.87769 | -0.37071 | 515 ft | 4 kts | 253° |
| 2026-04-23 12:40 | 51.87776 | -0.37036 | 515 ft | 4 kts | 236° |
| 2026-04-23 12:40 | 51.87794 | -0.37018 | 514 ft | 4 kts | 177° |
| 2026-04-23 12:40 | 51.87818 | -0.37026 | 513 ft | 4 kts | 162° |
| 2026-04-23 12:41 | 51.87844 | -0.37039 | 511 ft | 4 kts | 162° |
| 2026-04-23 12:41 | 51.87866 | -0.37051 | 510 ft | 1 kts | 162° |
| 2026-04-23 12:43 | 51.87849 | -0.37042 | 511 ft | 5 kts | 162° |
| 2026-04-23 12:43 | 51.87795 | -0.37014 | 514 ft | 11 kts | 162° |
| 2026-04-23 12:43 | 51.87712 | -0.36970 | 520 ft | 14 kts | 161° |
| 2026-04-23 12:44 | 51.87628 | -0.36984 | 521 ft | 15 kts | 244° |
| 2026-04-23 12:44 | 51.87595 | -0.37165 | 521 ft | 18 kts | 253° |
| 2026-04-23 12:44 | 51.87580 | -0.37355 | 521 ft | 17 kts | 282° |
| 2026-04-23 12:44 | 51.87519 | -0.37497 | 520 ft | 17 kts | 225° |
| 2026-04-23 12:45 | 51.87480 | -0.37675 | 522 ft | 16 kts | 255° |
| 2026-04-23 12:45 | 51.87450 | -0.37851 | 522 ft | 16 kts | 254° |
| 2026-04-23 12:45 | 51.87412 | -0.38013 | 523 ft | 15 kts | 233° |
| 2026-04-23 12:45 | 51.87323 | -0.38099 | 521 ft | 15 kts | 199° |
| 2026-04-23 12:46 | 51.87235 | -0.38160 | 523 ft | 14 kts | 240° |
| 2026-04-23 12:46 | 51.87234 | -0.38311 | 521 ft | 14 kts | 257° |
| 2026-04-23 12:46 | 51.87202 | -0.38304 | 520 ft | 6 kts | 73° |
| 2026-04-23 12:46 | 51.87234 | -0.38161 | 523 ft | 33 kts | 74° |
| 2026-04-23 12:47 | 51.87379 | -0.37326 | 521 ft | 119 kts | 74° |
| 2026-04-23 12:47 | 51.87645 | -0.35723 | 833 ft | 165 kts | 76° |
| 2026-04-23 12:47 | 51.87904 | -0.33811 | 1727 ft | 179 kts | 76° |
| 2026-04-23 12:47 | 51.88246 | -0.31944 | 3266 ft | 160 kts | 74° |
| 2026-04-23 12:48 | 51.88590 | -0.30142 | 3912 ft | 189 kts | 76° |
| 2026-04-23 12:48 | 51.88998 | -0.27896 | 3992 ft | 226 kts | 75° |
| 2026-04-23 12:48 | 51.89065 | -0.25314 | 4354 ft | 232 kts | 110° |
| 2026-04-23 12:48 | 51.88130 | -0.23231 | 5225 ft | 238 kts | 142° |
| 2026-04-23 12:49 | 51.86503 | -0.22380 | 5678 ft | 266 kts | 180° |
| 2026-04-23 12:49 | 51.84745 | -0.23383 | 6643 ft | 276 kts | 216° |
| 2026-04-23 12:49 | 51.83576 | -0.25881 | 7500 ft | 287 kts | 249° |
| 2026-04-23 12:49 | 51.83239 | -0.29104 | 8415 ft | 292 kts | 264° |
| 2026-04-23 12:50 | 51.83005 | -0.32401 | 9296 ft | 297 kts | 261° |
| 2026-04-23 12:50 | 51.82626 | -0.35677 | 10170 ft | 301 kts | 257° |
| 2026-04-23 12:50 | 51.82143 | -0.38990 | 10943 ft | 307 kts | 256° |
| 2026-04-23 12:50 | 51.81592 | -0.42456 | 11298 ft | 330 kts | 255° |
| 2026-04-23 12:51 | 51.80997 | -0.46180 | 11799 ft | 344 kts | 256° |
| 2026-04-23 12:51 | 51.80423 | -0.49946 | 12571 ft | 350 kts | 256° |
| 2026-04-23 12:51 | 51.79841 | -0.53808 | 13276 ft | 358 kts | 256° |
| 2026-04-23 12:51 | 51.79245 | -0.57729 | 14048 ft | 362 kts | 256° |
| 2026-04-23 12:52 | 51.78639 | -0.61701 | 14864 ft | 365 kts | 256° |
| 2026-04-23 12:52 | 51.78031 | -0.65670 | 15547 ft | 369 kts | 256° |
| 2026-04-23 12:52 | 51.77408 | -0.69732 | 16275 ft | 373 kts | 256° |
| 2026-04-23 12:52 | 51.76776 | -0.73833 | 16981 ft | 377 kts | 256° |
| 2026-04-23 12:53 | 51.76041 | -0.77923 | 17671 ft | 381 kts | 246° |
| 2026-04-23 12:53 | 51.74614 | -0.81468 | 18343 ft | 383 kts | 226° |
| 2026-04-23 12:53 | 51.72728 | -0.84556 | 19039 ft | 385 kts | 223° |
| 2026-04-23 12:53 | 51.70811 | -0.87575 | 19602 ft | 390 kts | 223° |
| 2026-04-23 12:54 | 51.68850 | -0.90651 | 20182 ft | 394 kts | 223° |
| 2026-04-23 12:54 | 51.66899 | -0.93740 | 20791 ft | 397 kts | 224° |
| 2026-04-23 12:54 | 51.64920 | -0.96899 | 21380 ft | 401 kts | 224° |
| 2026-04-23 12:54 | 51.62930 | -1.00082 | 21977 ft | 404 kts | 225° |
| 2026-04-23 12:55 | 51.60911 | -1.03301 | 22571 ft | 408 kts | 225° |
| 2026-04-23 12:55 | 51.58906 | -1.06481 | 23140 ft | 411 kts | 225° |
| 2026-04-23 12:55 | 51.56827 | -1.09774 | 23711 ft | 414 kts | 225° |
| 2026-04-23 12:55 | 51.54777 | -1.13016 | 24219 ft | 418 kts | 226° |
| 2026-04-23 12:56 | 51.52691 | -1.16311 | 24687 ft | 420 kts | 225° |
| 2026-04-23 12:56 | 51.50354 | -1.19175 | 25097 ft | 427 kts | 208° |
| 2026-04-23 12:56 | 51.47535 | -1.20722 | 25546 ft | 430 kts | 188° |
| 2026-04-23 12:56 | 51.44541 | -1.20887 | 25984 ft | 432 kts | 173° |
| 2026-04-23 12:57 | 51.41633 | -1.19702 | 26359 ft | 433 kts | 154° |
| 2026-04-23 12:57 | 51.38997 | -1.17356 | 26765 ft | 434 kts | 147° |
| 2026-04-23 12:57 | 51.36478 | -1.14661 | 27142 ft | 437 kts | 140° |
| 2026-04-23 12:57 | 51.34078 | -1.11720 | 27500 ft | 441 kts | 142° |
| 2026-04-23 12:58 | 51.31478 | -1.09029 | 27873 ft | 446 kts | 149° |
| 2026-04-23 12:58 | 51.28688 | -1.06752 | 28256 ft | 451 kts | 153° |
| 2026-04-23 12:58 | 51.25839 | -1.04695 | 28622 ft | 455 kts | 155° |
| 2026-04-23 12:58 | 51.22920 | -1.02642 | 28981 ft | 458 kts | 154° |
| 2026-04-23 12:59 | 51.19995 | -1.00558 | 29368 ft | 461 kts | 154° |
| 2026-04-23 12:59 | 51.17050 | -0.98439 | 29722 ft | 464 kts | 154° |
| 2026-04-23 12:59 | 51.14332 | -0.96472 | 30022 ft | 466 kts | 154° |
| 2026-04-23 12:59 | 51.11360 | -0.94318 | 30372 ft | 469 kts | 154° |
| 2026-04-23 13:00 | 51.08371 | -0.92152 | 30665 ft | 472 kts | 154° |
| 2026-04-23 13:00 | 51.05396 | -0.90000 | 30978 ft | 473 kts | 154° |
| 2026-04-23 13:00 | 51.02386 | -0.87827 | 31335 ft | 474 kts | 154° |
| 2026-04-23 13:00 | 50.99370 | -0.85654 | 31668 ft | 474 kts | 154° |
| 2026-04-23 13:01 | 50.96362 | -0.83490 | 31967 ft | 475 kts | 155° |
| 2026-04-23 13:01 | 50.93345 | -0.81323 | 32305 ft | 475 kts | 155° |
| 2026-04-23 13:01 | 50.90361 | -0.79182 | 32731 ft | 473 kts | 155° |
| 2026-04-23 13:01 | 50.87364 | -0.77036 | 33214 ft | 469 kts | 155° |
| 2026-04-23 13:02 | 50.84433 | -0.74773 | 33662 ft | 466 kts | 149° |
| 2026-04-23 13:02 | 50.81701 | -0.72106 | 34010 ft | 465 kts | 146° |
| 2026-04-23 13:02 | 50.78989 | -0.69306 | 34319 ft | 465 kts | 145° |
| 2026-04-23 13:02 | 50.76282 | -0.66470 | 34613 ft | 465 kts | 145° |
| 2026-04-23 13:03 | 50.73608 | -0.63677 | 34909 ft | 464 kts | 146° |
| 2026-04-23 13:03 | 50.70906 | -0.60882 | 35206 ft | 463 kts | 146° |
| 2026-04-23 13:03 | 50.68199 | -0.58109 | 35485 ft | 462 kts | 146° |
| 2026-04-23 13:03 | 50.65492 | -0.55358 | 35758 ft | 462 kts | 146° |
| 2026-04-23 13:04 | 50.62791 | -0.52625 | 36031 ft | 461 kts | 146° |
| 2026-04-23 13:04 | 50.60088 | -0.49898 | 36285 ft | 460 kts | 146° |
| 2026-04-23 13:04 | 50.57390 | -0.47181 | 36543 ft | 460 kts | 146° |
| 2026-04-23 13:04 | 50.54727 | -0.44502 | 36795 ft | 459 kts | 146° |
| 2026-04-23 13:05 | 50.52032 | -0.41794 | 37051 ft | 459 kts | 146° |
| 2026-04-23 13:05 | 50.49344 | -0.39096 | 37375 ft | 456 kts | 146° |
| 2026-04-23 13:05 | 50.46669 | -0.36414 | 37680 ft | 454 kts | 147° |
| 2026-04-23 13:05 | 50.44001 | -0.33743 | 37904 ft | 454 kts | 146° |
| 2026-04-23 13:06 | 50.38674 | -0.28419 | 38395 ft | 452 kts | 147° |
| 2026-04-23 13:06 | 50.36014 | -0.25765 | 38372 ft | 455 kts | 146° |
| 2026-04-23 13:07 | 50.30667 | -0.20442 | 38391 ft | 459 kts | 147° |
| 2026-04-23 13:07 | 50.26157 | -0.15964 | 38397 ft | 461 kts | 147° |
| 2026-04-23 13:08 | 50.19831 | -0.09699 | 38377 ft | 462 kts | 147° |
| 2026-04-23 13:08 | 50.14395 | -0.04330 | 38375 ft | 460 kts | 147° |
| 2026-04-23 13:09 | 50.09795 | -0.00199 | 38365 ft | 457 kts | 156° |
| 2026-04-23 13:09 | 50.03779 | 0.02636 | 38377 ft | 453 kts | 166° |
| 2026-04-23 13:10 | 49.97650 | 0.04915 | 38370 ft | 450 kts | 166° |
| 2026-04-23 13:10 | 49.91542 | 0.07245 | 38369 ft | 453 kts | 166° |
| 2026-04-23 13:11 | 49.85474 | 0.09611 | 38345 ft | 452 kts | 166° |
| 2026-04-23 13:11 | 49.79358 | 0.12001 | 38346 ft | 453 kts | 166° |
| 2026-04-23 13:12 | 49.73228 | 0.14388 | 38332 ft | 453 kts | 166° |
| 2026-04-23 13:12 | 49.67100 | 0.16769 | 38333 ft | 454 kts | 165° |
| 2026-04-23 13:13 | 49.60978 | 0.19240 | 38328 ft | 456 kts | 165° |
| 2026-04-23 13:13 | 49.54812 | 0.21755 | 38326 ft | 459 kts | 165° |
| 2026-04-23 13:14 | 49.48636 | 0.24256 | 38322 ft | 462 kts | 165° |
| 2026-04-23 13:14 | 49.42381 | 0.26774 | 38322 ft | 463 kts | 165° |
| 2026-04-23 13:15 | 49.36149 | 0.29277 | 38319 ft | 465 kts | 165° |
| 2026-04-23 13:15 | 49.29859 | 0.31801 | 38313 ft | 464 kts | 165° |
| 2026-04-23 13:16 | 49.23667 | 0.34392 | 38301 ft | 460 kts | 165° |
| 2026-04-23 13:16 | 49.17534 | 0.36992 | 38301 ft | 456 kts | 165° |
| 2026-04-23 13:17 | 49.11421 | 0.39564 | 38299 ft | 454 kts | 165° |
| 2026-04-23 13:17 | 49.05312 | 0.42118 | 38306 ft | 457 kts | 165° |
| 2026-04-23 13:18 | 48.99131 | 0.44693 | 38317 ft | 462 kts | 165° |
| 2026-04-23 13:18 | 48.92879 | 0.47292 | 38306 ft | 468 kts | 165° |
| 2026-04-23 13:19 | 48.86605 | 0.49895 | 38291 ft | 470 kts | 165° |
| 2026-04-23 13:19 | 48.80290 | 0.52508 | 38282 ft | 468 kts | 165° |
| 2026-04-23 13:20 | 48.74041 | 0.55017 | 38280 ft | 460 kts | 166° |
| 2026-04-23 13:20 | 48.67843 | 0.57417 | 38280 ft | 458 kts | 166° |
| 2026-04-23 13:21 | 48.61726 | 0.59792 | 38287 ft | 456 kts | 166° |
| 2026-04-23 13:21 | 48.55561 | 0.62193 | 38286 ft | 456 kts | 166° |
| 2026-04-23 13:22 | 48.49392 | 0.64613 | 38281 ft | 458 kts | 165° |
| 2026-04-23 13:22 | 48.43236 | 0.67124 | 38285 ft | 460 kts | 165° |
| 2026-04-23 13:23 | 48.37070 | 0.69642 | 38275 ft | 462 kts | 165° |
| 2026-04-23 13:23 | 48.30829 | 0.72169 | 38273 ft | 464 kts | 165° |
| 2026-04-23 13:24 | 48.24610 | 0.74676 | 38269 ft | 466 kts | 166° |
| 2026-04-23 13:24 | 48.18308 | 0.77169 | 38268 ft | 468 kts | 166° |
| 2026-04-23 13:25 | 48.11984 | 0.79648 | 38256 ft | 469 kts | 166° |
| 2026-04-23 13:25 | 48.05697 | 0.82111 | 38248 ft | 469 kts | 166° |
| 2026-04-23 13:26 | 47.99383 | 0.84584 | 38246 ft | 469 kts | 166° |
| 2026-04-23 13:26 | 47.93062 | 0.87053 | 38243 ft | 468 kts | 166° |
| 2026-04-23 13:27 | 47.86769 | 0.89506 | 38232 ft | 467 kts | 166° |
| 2026-04-23 13:27 | 47.80478 | 0.91949 | 38237 ft | 466 kts | 166° |
| 2026-04-23 13:28 | 47.74231 | 0.94364 | 38231 ft | 465 kts | 166° |
| 2026-04-23 13:28 | 47.67964 | 0.96782 | 38244 ft | 465 kts | 166° |
| 2026-04-23 13:29 | 47.61703 | 0.99193 | 38233 ft | 464 kts | 166° |
| 2026-04-23 13:29 | 47.55420 | 1.01607 | 38222 ft | 464 kts | 166° |
| 2026-04-23 13:30 | 47.49197 | 1.03992 | 38239 ft | 465 kts | 166° |
| 2026-04-23 13:30 | 47.42900 | 1.06202 | 38217 ft | 464 kts | 174° |
| 2026-04-23 13:31 | 47.36487 | 1.06433 | 38230 ft | 461 kts | 184° |
| 2026-04-23 13:31 | 47.30059 | 1.06165 | 38226 ft | 462 kts | 184° |
| 2026-04-23 13:32 | 47.23614 | 1.05964 | 38220 ft | 463 kts | 183° |
| 2026-04-23 13:32 | 47.17164 | 1.05818 | 38213 ft | 464 kts | 183° |
| 2026-04-23 13:33 | 47.10690 | 1.05679 | 38219 ft | 465 kts | 183° |
| 2026-04-23 13:33 | 47.04196 | 1.05536 | 38211 ft | 466 kts | 183° |
| 2026-04-23 13:34 | 46.97705 | 1.05330 | 38194 ft | 466 kts | 184° |
| 2026-04-23 13:34 | 46.91248 | 1.05029 | 38201 ft | 466 kts | 184° |
| 2026-04-23 13:35 | 46.84759 | 1.04729 | 38203 ft | 467 kts | 184° |
| 2026-04-23 13:35 | 46.78253 | 1.04444 | 38191 ft | 466 kts | 184° |
| 2026-04-23 13:36 | 46.71771 | 1.04165 | 38185 ft | 466 kts | 184° |
| 2026-04-23 13:36 | 46.65268 | 1.03886 | 38191 ft | 466 kts | 184° |
| 2026-04-23 13:37 | 46.58775 | 1.03608 | 38182 ft | 466 kts | 184° |
| 2026-04-23 13:37 | 46.52316 | 1.03331 | 38177 ft | 466 kts | 184° |
| 2026-04-23 13:38 | 46.45836 | 1.03176 | 38181 ft | 466 kts | 183° |
| 2026-04-23 13:38 | 46.39352 | 1.03146 | 38176 ft | 466 kts | 183° |
| 2026-04-23 13:39 | 46.32858 | 1.03108 | 38174 ft | 466 kts | 183° |
| 2026-04-23 13:39 | 46.26373 | 1.03049 | 38171 ft | 465 kts | 183° |
| 2026-04-23 13:40 | 46.19924 | 1.02983 | 38166 ft | 465 kts | 183° |
| 2026-04-23 13:40 | 46.13453 | 1.02917 | 38166 ft | 465 kts | 183° |
| 2026-04-23 13:41 | 46.06987 | 1.02852 | 38157 ft | 464 kts | 183° |
| 2026-04-23 13:41 | 46.00522 | 1.02788 | 38160 ft | 464 kts | 183° |
| 2026-04-23 13:42 | 45.94060 | 1.02724 | 38158 ft | 463 kts | 183° |
| 2026-04-23 13:42 | 45.87648 | 1.02660 | 38160 ft | 463 kts | 183° |
| 2026-04-23 13:43 | 45.81205 | 1.02699 | 38151 ft | 464 kts | 178° |
| 2026-04-23 13:43 | 45.74811 | 1.04174 | 38156 ft | 465 kts | 171° |
| 2026-04-23 13:44 | 45.68453 | 1.05913 | 38166 ft | 465 kts | 171° |
| 2026-04-23 13:44 | 45.62140 | 1.07584 | 38157 ft | 464 kts | 172° |
| 2026-04-23 13:45 | 45.56846 | 1.08944 | 38159 ft | 464 kts | 172° |
| 2026-04-23 13:45 | 45.50450 | 1.10568 | 38166 ft | 463 kts | 172° |
| 2026-04-23 13:46 | 45.44148 | 1.12167 | 38154 ft | 463 kts | 172° |
| 2026-04-23 13:46 | 45.37782 | 1.13780 | 38157 ft | 463 kts | 172° |
| 2026-04-23 13:47 | 45.31463 | 1.15378 | 38155 ft | 463 kts | 172° |
| 2026-04-23 13:47 | 45.25103 | 1.16984 | 38148 ft | 463 kts | 172° |
| 2026-04-23 13:48 | 45.18758 | 1.18569 | 38156 ft | 463 kts | 174° |
| 2026-04-23 13:48 | 45.12385 | 1.18573 | 38148 ft | 455 kts | 193° |
| 2026-04-23 13:49 | 45.06164 | 1.16926 | 38149 ft | 454 kts | 194° |
| 2026-04-23 13:49 | 44.99987 | 1.15254 | 38150 ft | 455 kts | 194° |
| 2026-04-23 13:50 | 44.93765 | 1.13626 | 38153 ft | 455 kts | 193° |
| 2026-04-23 13:50 | 44.87520 | 1.12028 | 38153 ft | 455 kts | 193° |
| 2026-04-23 13:51 | 44.81269 | 1.10440 | 38140 ft | 455 kts | 193° |
| 2026-04-23 13:51 | 44.75071 | 1.08867 | 38135 ft | 455 kts | 193° |
| 2026-04-23 13:52 | 44.68830 | 1.07286 | 38135 ft | 455 kts | 193° |
| 2026-04-23 13:52 | 44.62597 | 1.05710 | 38131 ft | 455 kts | 193° |
| 2026-04-23 13:53 | 44.56401 | 1.04146 | 38129 ft | 454 kts | 193° |
| 2026-04-23 13:53 | 44.50172 | 1.02578 | 38126 ft | 454 kts | 193° |
| 2026-04-23 13:54 | 44.43958 | 1.01016 | 38122 ft | 453 kts | 193° |
| 2026-04-23 13:54 | 44.37750 | 0.99460 | 38118 ft | 452 kts | 193° |
| 2026-04-23 13:55 | 44.31553 | 0.97910 | 38117 ft | 452 kts | 193° |
| 2026-04-23 13:55 | 44.25349 | 0.96361 | 38116 ft | 451 kts | 193° |
| 2026-04-23 13:56 | 44.19169 | 0.94821 | 38107 ft | 451 kts | 193° |
| 2026-04-23 13:56 | 44.12995 | 0.93286 | 38096 ft | 450 kts | 193° |
| 2026-04-23 13:57 | 44.06822 | 0.91755 | 38105 ft | 450 kts | 193° |
| 2026-04-23 13:57 | 44.00665 | 0.90230 | 38106 ft | 449 kts | 193° |
| 2026-04-23 13:58 | 43.94493 | 0.88704 | 38100 ft | 449 kts | 193° |
| 2026-04-23 13:58 | 43.88376 | 0.87196 | 38112 ft | 449 kts | 194° |
| 2026-04-23 13:59 | 43.82229 | 0.85582 | 38110 ft | 448 kts | 194° |
| 2026-04-23 13:59 | 43.76123 | 0.83922 | 38100 ft | 448 kts | 194° |
| 2026-04-23 14:00 | 43.71041 | 0.82548 | 38109 ft | 448 kts | 194° |
| 2026-04-23 14:00 | 43.63878 | 0.80629 | 38100 ft | 448 kts | 194° |
| 2026-04-23 14:01 | 43.57796 | 0.79008 | 38092 ft | 447 kts | 194° |
| 2026-04-23 14:01 | 43.51672 | 0.77381 | 38099 ft | 447 kts | 194° |
| 2026-04-23 14:02 | 43.45591 | 0.75768 | 38095 ft | 447 kts | 194° |
| 2026-04-23 14:02 | 43.39491 | 0.74153 | 38088 ft | 446 kts | 194° |
| 2026-04-23 14:03 | 43.33390 | 0.72541 | 38090 ft | 446 kts | 194° |
| 2026-04-23 14:03 | 43.27292 | 0.70933 | 38082 ft | 445 kts | 194° |
| 2026-04-23 14:04 | 43.21214 | 0.69334 | 38089 ft | 444 kts | 194° |
| 2026-04-23 14:04 | 43.15141 | 0.67739 | 38090 ft | 443 kts | 194° |
| 2026-04-23 14:05 | 43.09111 | 0.66158 | 38087 ft | 443 kts | 194° |
| 2026-04-23 14:05 | 43.03060 | 0.64576 | 38102 ft | 442 kts | 194° |
| 2026-04-23 14:06 | 42.97019 | 0.62998 | 38108 ft | 442 kts | 194° |
| 2026-04-23 14:06 | 42.90971 | 0.61422 | 38109 ft | 442 kts | 194° |
| 2026-04-23 14:07 | 42.84948 | 0.59856 | 38118 ft | 440 kts | 194° |
| 2026-04-23 14:07 | 42.75975 | 0.57530 | 38142 ft | 437 kts | 194° |
| 2026-04-23 14:08 | 42.69997 | 0.55914 | 38134 ft | 437 kts | 199° |
| 2026-04-23 14:08 | 42.64439 | 0.52858 | 38163 ft | 433 kts | 209° |
| 2026-04-23 14:09 | 42.58968 | 0.49263 | 38132 ft | 432 kts | 210° |
| 2026-04-23 14:09 | 42.53560 | 0.45748 | 38152 ft | 435 kts | 209° |
| 2026-04-23 14:10 | 42.48085 | 0.42242 | 38164 ft | 436 kts | 209° |
| 2026-04-23 14:10 | 42.42569 | 0.38733 | 38162 ft | 439 kts | 209° |
| 2026-04-23 14:11 | 42.37025 | 0.35215 | 38148 ft | 440 kts | 209° |
| 2026-04-23 14:11 | 42.31484 | 0.31704 | 38144 ft | 439 kts | 209° |
| 2026-04-23 14:12 | 42.25953 | 0.28206 | 38144 ft | 437 kts | 209° |
| 2026-04-23 14:12 | 42.20483 | 0.24753 | 38148 ft | 435 kts | 209° |
| 2026-04-23 14:13 | 42.15005 | 0.21300 | 38136 ft | 432 kts | 209° |
| 2026-04-23 14:13 | 42.09571 | 0.17882 | 38130 ft | 429 kts | 208° |
| 2026-04-23 14:14 | 42.03914 | 0.15258 | 38137 ft | 433 kts | 192° |
| 2026-04-23 14:14 | 41.97912 | 0.14325 | 38141 ft | 434 kts | 189° |
| 2026-04-23 14:15 | 41.91907 | 0.13517 | 38145 ft | 433 kts | 189° |
| 2026-04-23 14:15 | 41.85910 | 0.12664 | 38151 ft | 433 kts | 190° |
| 2026-04-23 14:16 | 41.79946 | 0.11780 | 38146 ft | 434 kts | 190° |
| 2026-04-23 14:16 | 41.73932 | 0.10880 | 38149 ft | 435 kts | 190° |
| 2026-04-23 14:17 | 41.67905 | 0.09979 | 38135 ft | 436 kts | 190° |
| 2026-04-23 14:17 | 41.61853 | 0.09078 | 38149 ft | 438 kts | 190° |
| 2026-04-23 14:18 | 41.55777 | 0.08176 | 38136 ft | 439 kts | 190° |
| 2026-04-23 14:18 | 41.49697 | 0.07274 | 38134 ft | 440 kts | 190° |
| 2026-04-23 14:19 | 41.43641 | 0.06378 | 38147 ft | 439 kts | 190° |
| 2026-04-23 14:19 | 41.37564 | 0.05481 | 38139 ft | 439 kts | 190° |
| 2026-04-23 14:20 | 41.31484 | 0.04585 | 38135 ft | 438 kts | 190° |
| 2026-04-23 14:20 | 41.25458 | 0.03698 | 38134 ft | 437 kts | 190° |
| 2026-04-23 14:21 | 41.19406 | 0.02809 | 38128 ft | 436 kts | 190° |
| 2026-04-23 14:21 | 41.13383 | 0.01925 | 38123 ft | 435 kts | 190° |
| 2026-04-23 14:22 | 41.07373 | 0.01047 | 38127 ft | 434 kts | 190° |
| 2026-04-23 14:22 | 41.01371 | 0.00175 | 38131 ft | 433 kts | 190° |
| 2026-04-23 14:23 | 40.95424 | -0.00687 | 38120 ft | 432 kts | 190° |
| 2026-04-23 14:23 | 40.89456 | -0.01551 | 38136 ft | 431 kts | 189° |
| 2026-04-23 14:24 | 40.83494 | -0.02414 | 38137 ft | 431 kts | 189° |
| 2026-04-23 14:24 | 40.77528 | -0.03275 | 38143 ft | 431 kts | 189° |
| 2026-04-23 14:25 | 40.71584 | -0.04132 | 38151 ft | 432 kts | 189° |
| 2026-04-23 14:25 | 40.66613 | -0.04848 | 38141 ft | 432 kts | 189° |
| 2026-04-23 14:26 | 40.60633 | -0.05707 | 38142 ft | 433 kts | 189° |
| 2026-04-23 14:26 | 40.54670 | -0.06755 | 38113 ft | 430 kts | 198° |
| 2026-04-23 14:27 | 40.48943 | -0.09001 | 38102 ft | 429 kts | 200° |
| 2026-04-23 14:27 | 40.43225 | -0.11343 | 38079 ft | 430 kts | 200° |
| 2026-04-23 14:28 | 40.37512 | -0.13620 | 38065 ft | 431 kts | 200° |
| 2026-04-23 14:28 | 40.31768 | -0.15878 | 38055 ft | 430 kts | 200° |
| 2026-04-23 14:29 | 40.26036 | -0.18127 | 38055 ft | 430 kts | 200° |
| 2026-04-23 14:29 | 40.20304 | -0.20388 | 38069 ft | 429 kts | 200° |
| 2026-04-23 14:30 | 40.14578 | -0.22653 | 38088 ft | 428 kts | 200° |
| 2026-04-23 14:30 | 40.08905 | -0.24893 | 38106 ft | 427 kts | 200° |
| 2026-04-23 14:31 | 40.03215 | -0.27134 | 38125 ft | 426 kts | 200° |
| 2026-04-23 14:31 | 39.97533 | -0.29358 | 38154 ft | 425 kts | 200° |
| 2026-04-23 14:32 | 39.91850 | -0.31542 | 38151 ft | 425 kts | 200° |
| 2026-04-23 14:32 | 39.86222 | -0.33712 | 38153 ft | 424 kts | 200° |
| 2026-04-23 14:33 | 39.80566 | -0.35915 | 38151 ft | 424 kts | 200° |
| 2026-04-23 14:33 | 39.74900 | -0.38122 | 38156 ft | 424 kts | 200° |
| 2026-04-23 14:34 | 39.69242 | -0.40319 | 38160 ft | 424 kts | 200° |
| 2026-04-23 14:34 | 39.63585 | -0.42511 | 38159 ft | 425 kts | 200° |
| 2026-04-23 14:35 | 39.57917 | -0.44703 | 38155 ft | 425 kts | 200° |
| 2026-04-23 14:35 | 39.52284 | -0.46878 | 38156 ft | 425 kts | 200° |
| 2026-04-23 14:36 | 39.46509 | -0.48576 | 38148 ft | 429 kts | 187° |
| 2026-04-23 14:36 | 39.40535 | -0.49002 | 38156 ft | 430 kts | 186° |
| 2026-04-23 14:37 | 39.34550 | -0.49359 | 38153 ft | 430 kts | 186° |
| 2026-04-23 14:37 | 39.28566 | -0.49756 | 38144 ft | 430 kts | 186° |
| 2026-04-23 14:38 | 39.22621 | -0.50177 | 38140 ft | 429 kts | 187° |
| 2026-04-23 14:38 | 39.16653 | -0.50608 | 38133 ft | 429 kts | 187° |
| 2026-04-23 14:39 | 39.10688 | -0.51038 | 38098 ft | 429 kts | 187° |
| 2026-04-23 14:39 | 39.04726 | -0.51454 | 38075 ft | 429 kts | 187° |
| 2026-04-23 14:40 | 38.98775 | -0.51886 | 38049 ft | 428 kts | 187° |
| 2026-04-23 14:40 | 38.92817 | -0.52316 | 38021 ft | 428 kts | 187° |
| 2026-04-23 14:41 | 38.89868 | -0.52525 | 37646 ft | 433 kts | 187° |
| 2026-04-23 14:41 | 38.86872 | -0.52737 | 37315 ft | 428 kts | 186° |
| 2026-04-23 14:41 | 38.83909 | -0.52949 | 36863 ft | 424 kts | 186° |
| 2026-04-23 14:41 | 38.80975 | -0.53160 | 36487 ft | 419 kts | 186° |
| 2026-04-23 14:42 | 38.78070 | -0.53369 | 36094 ft | 416 kts | 186° |
| 2026-04-23 14:42 | 38.75189 | -0.53575 | 35673 ft | 413 kts | 186° |
| 2026-04-23 14:42 | 38.72324 | -0.53779 | 35271 ft | 411 kts | 186° |
| 2026-04-23 14:42 | 38.69476 | -0.53982 | 34873 ft | 408 kts | 186° |
| 2026-04-23 14:43 | 38.66643 | -0.54184 | 34492 ft | 405 kts | 186° |
| 2026-04-23 14:43 | 38.63835 | -0.54383 | 34116 ft | 403 kts | 186° |
| 2026-04-23 14:43 | 38.61038 | -0.54581 | 33694 ft | 401 kts | 186° |
| 2026-04-23 14:43 | 38.58260 | -0.54778 | 33282 ft | 398 kts | 186° |
| 2026-04-23 14:44 | 38.55534 | -0.54971 | 32895 ft | 396 kts | 186° |
| 2026-04-23 14:44 | 38.52791 | -0.55165 | 32526 ft | 393 kts | 186° |
| 2026-04-23 14:44 | 38.50064 | -0.55358 | 32141 ft | 390 kts | 186° |
| 2026-04-23 14:44 | 38.47362 | -0.55549 | 31773 ft | 387 kts | 186° |
| 2026-04-23 14:45 | 38.44671 | -0.55740 | 31407 ft | 385 kts | 186° |
| 2026-04-23 14:45 | 38.42027 | -0.55927 | 31038 ft | 383 kts | 186° |
| 2026-04-23 14:45 | 38.39372 | -0.56113 | 30682 ft | 381 kts | 186° |
| 2026-04-23 14:45 | 38.36726 | -0.56301 | 30317 ft | 379 kts | 186° |
| 2026-04-23 14:46 | 38.34104 | -0.56486 | 29936 ft | 377 kts | 186° |
| 2026-04-23 14:46 | 38.31490 | -0.56670 | 29525 ft | 374 kts | 186° |
| 2026-04-23 14:46 | 38.28896 | -0.56852 | 29136 ft | 371 kts | 186° |
| 2026-04-23 14:46 | 38.26327 | -0.57003 | 28760 ft | 368 kts | 183° |
| 2026-04-23 14:47 | 38.23755 | -0.56965 | 28308 ft | 368 kts | 181° |
| 2026-04-23 14:47 | 38.21198 | -0.56836 | 27926 ft | 366 kts | 180° |
| 2026-04-23 14:47 | 38.18656 | -0.56683 | 27545 ft | 364 kts | 180° |
| 2026-04-23 14:47 | 38.16163 | -0.56534 | 27176 ft | 362 kts | 180° |
| 2026-04-23 14:48 | 38.13655 | -0.56391 | 26811 ft | 359 kts | 180° |
| 2026-04-23 14:48 | 38.11125 | -0.56256 | 26444 ft | 357 kts | 180° |
| 2026-04-23 14:48 | 38.08653 | -0.56129 | 26085 ft | 355 kts | 180° |
| 2026-04-23 14:48 | 38.06222 | -0.56008 | 25734 ft | 353 kts | 180° |
| 2026-04-23 14:49 | 38.03775 | -0.55889 | 25381 ft | 351 kts | 180° |
| 2026-04-23 14:49 | 38.01344 | -0.55772 | 25030 ft | 349 kts | 180° |
| 2026-04-23 14:49 | 37.98912 | -0.55655 | 24678 ft | 348 kts | 180° |
| 2026-04-23 14:49 | 37.96502 | -0.55540 | 24334 ft | 346 kts | 180° |
| 2026-04-23 14:50 | 37.94097 | -0.55424 | 23981 ft | 345 kts | 180° |
| 2026-04-23 14:50 | 37.91701 | -0.55310 | 23614 ft | 344 kts | 180° |
| 2026-04-23 14:50 | 37.89302 | -0.55194 | 23215 ft | 343 kts | 180° |
| 2026-04-23 14:50 | 37.86929 | -0.55080 | 22840 ft | 341 kts | 180° |
| 2026-04-23 14:51 | 37.84572 | -0.54968 | 22478 ft | 338 kts | 180° |
| 2026-04-23 14:51 | 37.82220 | -0.54855 | 22129 ft | 336 kts | 180° |
| 2026-04-23 14:51 | 37.79893 | -0.54743 | 21785 ft | 333 kts | 180° |
| 2026-04-23 14:51 | 37.77614 | -0.54634 | 21450 ft | 330 kts | 180° |
| 2026-04-23 14:52 | 37.75324 | -0.54527 | 21110 ft | 328 kts | 180° |
| 2026-04-23 14:52 | 37.73046 | -0.54419 | 20776 ft | 325 kts | 181° |
| 2026-04-23 14:52 | 37.70789 | -0.54310 | 20453 ft | 323 kts | 181° |
| 2026-04-23 14:52 | 37.68550 | -0.54205 | 20126 ft | 321 kts | 181° |
| 2026-04-23 14:53 | 37.66323 | -0.54098 | 19798 ft | 319 kts | 181° |
| 2026-04-23 14:53 | 37.64111 | -0.53992 | 19472 ft | 317 kts | 181° |
| 2026-04-23 14:53 | 37.61907 | -0.53888 | 19147 ft | 315 kts | 182° |
| 2026-04-23 14:53 | 37.59713 | -0.53784 | 18822 ft | 314 kts | 181° |
| 2026-04-23 14:54 | 37.57563 | -0.53682 | 18508 ft | 312 kts | 182° |
| 2026-04-23 14:54 | 37.55385 | -0.53579 | 18079 ft | 313 kts | 180° |
| 2026-04-23 14:54 | 37.53207 | -0.53474 | 17711 ft | 311 kts | 181° |
| 2026-04-23 14:54 | 37.51045 | -0.53371 | 17373 ft | 309 kts | 181° |
| 2026-04-23 14:55 | 37.48908 | -0.53419 | 16999 ft | 304 kts | 193° |
| 2026-04-23 14:55 | 37.46973 | -0.54365 | 16704 ft | 295 kts | 214° |
| 2026-04-23 14:55 | 37.45396 | -0.55991 | 16371 ft | 291 kts | 230° |
| 2026-04-23 14:55 | 37.44230 | -0.58019 | 16073 ft | 288 kts | 238° |
| 2026-04-23 14:56 | 37.43302 | -0.60246 | 15743 ft | 287 kts | 245° |
| 2026-04-23 14:56 | 37.42565 | -0.62565 | 15447 ft | 285 kts | 249° |
| 2026-04-23 14:56 | 37.41926 | -0.64916 | 15136 ft | 283 kts | 251° |
| 2026-04-23 14:56 | 37.41343 | -0.67277 | 14839 ft | 282 kts | 252° |
| 2026-04-23 14:57 | 37.40833 | -0.69652 | 14533 ft | 281 kts | 254° |
| 2026-04-23 14:57 | 37.40413 | -0.72053 | 14236 ft | 279 kts | 257° |
| 2026-04-23 14:57 | 37.40090 | -0.74463 | 13944 ft | 279 kts | 260° |
| 2026-04-23 14:57 | 37.39866 | -0.76883 | 13624 ft | 278 kts | 263° |
| 2026-04-23 14:58 | 37.39740 | -0.79308 | 13299 ft | 277 kts | 265° |
| 2026-04-23 14:58 | 37.39711 | -0.81726 | 12994 ft | 276 kts | 268° |
| 2026-04-23 14:58 | 37.39774 | -0.84143 | 12692 ft | 275 kts | 269° |
| 2026-04-23 14:58 | 37.39932 | -0.86501 | 12421 ft | 273 kts | 272° |
| 2026-04-23 14:59 | 37.40185 | -0.88862 | 12153 ft | 271 kts | 276° |
| 2026-04-23 14:59 | 37.40527 | -0.91179 | 11913 ft | 268 kts | 277° |
| 2026-04-23 14:59 | 37.40948 | -0.93455 | 11677 ft | 266 kts | 280° |
| 2026-04-23 14:59 | 37.41458 | -0.95702 | 11387 ft | 269 kts | 284° |
| 2026-04-23 15:00 | 37.42064 | -0.97956 | 11102 ft | 275 kts | 284° |
| 2026-04-23 15:00 | 37.42767 | -1.00213 | 10792 ft | 280 kts | 287° |
| 2026-04-23 15:00 | 37.43544 | -1.02461 | 10466 ft | 281 kts | 291° |
| 2026-04-23 15:00 | 37.44410 | -1.04658 | 10243 ft | 278 kts | 293° |
| 2026-04-23 15:01 | 37.45416 | -1.06724 | 9884 ft | 284 kts | 307° |
| 2026-04-23 15:01 | 37.47023 | -1.08208 | 9532 ft | 293 kts | 334° |
| 2026-04-23 15:01 | 37.49043 | -1.08649 | 9193 ft | 300 kts | 4° |
| 2026-04-23 15:01 | 37.51083 | -1.08063 | 8652 ft | 307 kts | 7° |
| 2026-04-23 15:02 | 37.52498 | -1.08146 | 8354 ft | 306 kts | 342° |
| 2026-04-23 15:02 | 37.54640 | -1.10129 | 8251 ft | 282 kts | 296° |
| 2026-04-23 15:02 | 37.55129 | -1.12454 | 7979 ft | 277 kts | 262° |
| 2026-04-23 15:02 | 37.54484 | -1.14651 | 7686 ft | 267 kts | 228° |
| 2026-04-23 15:03 | 37.53219 | -1.16358 | 7376 ft | 267 kts | 231° |
| 2026-04-23 15:03 | 37.52331 | -1.18412 | 7122 ft | 270 kts | 251° |
| 2026-04-23 15:03 | 37.52248 | -1.20771 | 6874 ft | 273 kts | 278° |
| 2026-04-23 15:03 | 37.52861 | -1.23039 | 6632 ft | 274 kts | 293° |
| 2026-04-23 15:04 | 37.53722 | -1.25184 | 6356 ft | 275 kts | 296° |
| 2026-04-23 15:04 | 37.54588 | -1.27304 | 6064 ft | 274 kts | 296° |
| 2026-04-23 15:04 | 37.55480 | -1.29427 | 5806 ft | 273 kts | 298° |
| 2026-04-23 15:04 | 37.56456 | -1.31483 | 5555 ft | 272 kts | 303° |
| 2026-04-23 15:05 | 37.57527 | -1.33446 | 5365 ft | 270 kts | 307° |
| 2026-04-23 15:05 | 37.58650 | -1.35308 | 5261 ft | 264 kts | 310° |
| 2026-04-23 15:05 | 37.60010 | -1.36760 | 5129 ft | 253 kts | 341° |
| 2026-04-23 15:05 | 37.61121 | -1.37030 | 5095 ft | 240 kts | 6° |
| 2026-04-23 15:06 | 37.62628 | -1.36380 | 5022 ft | 225 kts | 36° |
| 2026-04-23 15:06 | 37.63894 | -1.35280 | 4854 ft | 220 kts | 40° |
| 2026-04-23 15:06 | 37.65070 | -1.34046 | 4612 ft | 218 kts | 44° |
| 2026-04-23 15:06 | 37.66158 | -1.32775 | 4415 ft | 212 kts | 47° |
| 2026-04-23 15:07 | 37.67144 | -1.31426 | 4161 ft | 206 kts | 51° |
| 2026-04-23 15:07 | 37.68064 | -1.30094 | 3946 ft | 197 kts | 51° |
| 2026-04-23 15:07 | 37.68934 | -1.28830 | 3732 ft | 184 kts | 52° |
| 2026-04-23 15:07 | 37.69743 | -1.27656 | 3517 ft | 170 kts | 52° |
| 2026-04-23 15:08 | 37.70492 | -1.26568 | 3324 ft | 158 kts | 52° |
| 2026-04-23 15:08 | 37.71185 | -1.25565 | 3187 ft | 146 kts | 53° |
| 2026-04-23 15:08 | 37.71832 | -1.24624 | 3007 ft | 144 kts | 53° |
| 2026-04-23 15:09 | 37.73133 | -1.22739 | 2630 ft | 139 kts | 53° |
| 2026-04-23 15:09 | 37.73759 | -1.21832 | 2432 ft | 133 kts | 53° |
| 2026-04-23 15:09 | 37.74348 | -1.20979 | 2229 ft | 123 kts | 52° |
| 2026-04-23 15:09 | 37.74902 | -1.20177 | 2083 ft | 121 kts | 53° |
| 2026-04-23 15:10 | 37.75452 | -1.19382 | 1910 ft | 119 kts | 53° |
| 2026-04-23 15:10 | 37.75992 | -1.18599 | 1750 ft | 117 kts | 53° |
| 2026-04-23 15:10 | 37.76515 | -1.17838 | 1586 ft | 114 kts | 53° |
| 2026-04-23 15:10 | 37.77073 | -1.17035 | 1443 ft | 127 kts | 53° |
| 2026-04-23 15:11 | 37.77674 | -1.16159 | 1231 ft | 132 kts | 54° |
| 2026-04-23 15:11 | 37.78211 | -1.15297 | 1028 ft | 117 kts | 57° |
| 2026-04-23 15:11 | 37.78742 | -1.14530 | 829 ft | 116 kts | 53° |
| 2026-04-23 15:11 | 37.79290 | -1.13805 | 687 ft | 114 kts | 52° |
| 2026-04-23 15:12 | 37.79858 | -1.13071 | 653 ft | 113 kts | 51° |
| 2026-04-23 15:12 | 37.80303 | -1.12493 | 648 ft | 69 kts | 45° |
| 2026-04-23 15:12 | 37.80544 | -1.12182 | 648 ft | 39 kts | 45° |
| 2026-04-23 15:12 | 37.80719 | -1.11958 | 646 ft | 32 kts | 45° |
| 2026-04-23 15:13 | 37.80866 | -1.11770 | 646 ft | 29 kts | 45° |
| 2026-04-23 15:13 | 37.81002 | -1.11594 | 647 ft | 27 kts | 45° |
| 2026-04-23 15:13 | 37.81129 | -1.11430 | 648 ft | 25 kts | 45° |
| 2026-04-23 15:13 | 37.81259 | -1.11307 | 647 ft | 21 kts | 354° |
| 2026-04-23 15:14 | 37.81347 | -1.11421 | 648 ft | 19 kts | 288° |
| 2026-04-23 15:14 | 37.81281 | -1.11547 | 648 ft | 18 kts | 225° |
| 2026-04-23 15:14 | 37.81194 | -1.11658 | 648 ft | 17 kts | 225° |
| 2026-04-23 15:14 | 37.81111 | -1.11764 | 648 ft | 17 kts | 225° |
| 2026-04-23 15:15 | 37.81031 | -1.11866 | 648 ft | 16 kts | 225° |
| 2026-04-23 15:15 | 37.80954 | -1.11965 | 648 ft | 15 kts | 226° |
| 2026-04-23 15:15 | 37.80882 | -1.12059 | 648 ft | 15 kts | 226° |
| 2026-04-23 15:15 | 37.80810 | -1.12152 | 648 ft | 14 kts | 225° |
| 2026-04-23 15:16 | 37.80743 | -1.12237 | 648 ft | 14 kts | 225° |
| 2026-04-23 15:16 | 37.80669 | -1.12332 | 649 ft | 17 kts | 225° |
| 2026-04-23 15:16 | 37.80572 | -1.12458 | 649 ft | 23 kts | 225° |
| 2026-04-23 15:16 | 37.80447 | -1.12616 | 649 ft | 28 kts | 225° |
| 2026-04-23 15:17 | 37.80308 | -1.12797 | 649 ft | 29 kts | 225° |
| 2026-04-23 15:17 | 37.80170 | -1.12974 | 649 ft | 27 kts | 225° |
| 2026-04-23 15:17 | 37.80158 | -1.13129 | 649 ft | 20 kts | 314° |
| 2026-04-23 15:17 | 37.80242 | -1.13172 | 649 ft | 9 kts | 328° |
| 2026-04-23 15:18 | 37.80284 | -1.13211 | 649 ft | 4 kts | 323° |
| 2026-04-23 15:18 | 37.80291 | -1.13217 | 649 ft | 1 kts | 323° |
| 2026-04-23 15:18 | 37.80292 | -1.13218 | 649 ft | 0 kts | 323° |